Time;durP1;ratioP1;P1;durP2;ratioP2;P2;SDS_P1;SDS_P2;PMS_P1;PMS_P2;Temp;Humidity;BMP_temperature;BMP_pressure;BME280_temperature;BME280_humidity;BME280_pressure;Samples;Min_cycle;Max_cycle;Signal;HPM_P1;HPM_P2
2023/01/26 00:02:24;;;;;;;;;;;;;;;-3.60;100.00;102375.97;10483835;28;19917;-76
2023/01/26 00:07:24;;;;;;;;;;;;;;;-3.63;100.00;102357.66;10472131;28;19931;-76
2023/01/26 00:12:25;;;;;;;;;;;;;;;-3.58;100.00;102363.38;10523146;28;19920;-76
2023/01/26 00:17:25;;;;;;;;;;;;;;;-3.57;100.00;102358.44;10507899;28;19920;-76
2023/01/26 00:22:25;;;;;;;;;;;;;;;-3.57;100.00;102363.56;10510462;28;20136;-76
2023/01/26 00:27:26;;;;;;;;;;;;;;;-3.63;100.00;102356.75;10497903;28;19943;-76
2023/01/26 00:32:26;;;;;;;;;;;;;;;-3.64;100.00;102353.25;10481013;28;20063;-76
2023/01/26 00:37:26;;;;;;;;;;;;;;;-3.59;100.00;102335.94;10465616;28;19928;-76
2023/01/26 00:42:27;;;;;;;;;;;;;;;-3.64;100.00;102331.88;10480240;28;19923;-76
2023/01/26 00:47:27;;;;;;;;;;;;;;;-3.64;100.00;102329.31;10524747;28;19923;-76
2023/01/26 00:52:27;;;;;;;;;;;;;;;-3.66;100.00;102317.97;10475691;28;19924;-76
2023/01/26 00:57:28;;;;;;;;;;;;;;;-3.69;100.00;102313.38;10504890;28;20019;-76
2023/01/26 01:02:28;;;;;;;;;;;;;;;-3.63;100.00;102306.47;10504602;28;20352;-76
2023/01/26 01:07:28;;;;;;;;;;;;;;;-3.61;100.00;102304.13;10509049;28;19973;-76
2023/01/26 01:12:29;;;;;;;;;;;;;;;-3.58;100.00;102300.28;10518270;28;20359;-76
2023/01/26 01:17:29;;;;;;;;;;;;;;;-3.67;100.00;102299.13;10503971;28;19936;-76
2023/01/26 01:22:29;;;;;;;;;;;;;;;-3.63;100.00;102286.00;10502618;28;20391;-76
2023/01/26 01:27:30;;;;;;;;;;;;;;;-3.64;100.00;102289.28;10511709;28;20015;-76
2023/01/26 01:32:30;;;;;;;;;;;;;;;-3.63;100.00;102278.31;10483506;28;20563;-76
2023/01/26 01:37:32;;;;;;;;;;;;;;;-3.65;100.00;102276.31;10526156;28;19963;-76
2023/01/26 01:42:32;;;;;;;;;;;;;;;-3.54;100.00;102276.03;10475249;28;19920;-76
2023/01/26 01:47:33;;;;;;;;;;;;;;;-3.58;100.00;102284.03;10515291;28;19920;-76
2023/01/26 01:52:33;;;;;;;;;;;;;;;-3.51;100.00;102283.16;10501274;28;20317;-76
2023/01/26 01:57:43;;;;;;;;;;;;;;;-3.55;100.00;102285.31;10489761;28;20007;-76
2023/01/26 02:02:44;;;;;;;;;;;;;;;-3.52;100.00;102282.25;10480742;28;19924;-76
2023/01/26 02:07:44;;;;;;;;;;;;;;;-3.52;100.00;102277.13;10471949;28;19973;-76
2023/01/26 02:12:45;;;;;;;;;;;;;;;-3.51;100.00;102272.91;10480866;28;20339;-76
2023/01/26 02:17:45;;;;;;;;;;;;;;;-3.48;100.00;102270.75;10503657;28;19924;-76
2023/01/26 02:22:55;;;;;;;;;;;;;;;-3.49;100.00;102251.94;10487037;28;20261;-76
2023/01/26 02:27:55;;;;;;;;;;;;;;;-3.42;100.00;102253.59;10493372;28;19955;-75
2023/01/26 02:32:55;;;;;;;;;;;;;;;-3.45;100.00;102249.03;10477323;28;20015;-76
2023/01/26 02:37:56;;;;;;;;;;;;;;;-3.42;100.00;102245.91;10499567;28;19920;-75
2023/01/26 02:42:57;;;;;;;;;;;;;;;-3.39;100.00;102241.19;10494922;28;19927;-76
2023/01/26 02:47:58;;;;;;;;;;;;;;;-3.33;100.00;102235.94;10512181;28;19974;-76
2023/01/26 02:52:59;;;;;;;;;;;;;;;-3.35;100.00;102225.47;10478543;28;20011;-76
2023/01/26 02:58:00;;;;;;;;;;;;;;;-3.33;100.00;102223.13;10472780;28;19927;-76
2023/01/26 03:03:01;;;;;;;;;;;;;;;-3.34;100.00;102224.75;10475698;28;19927;-77
2023/01/26 03:08:04;;;;;;;;;;;;;;;-3.33;100.00;102244.50;10500114;28;20286;-76
2023/01/26 03:13:05;;;;;;;;;;;;;;;-3.33;100.00;102234.28;10458040;28;1245641;-76
2023/01/26 03:28:55;;;;;;;;;;;;;;;-3.29;100.00;102227.91;10485086;28;19921;-77
2023/01/26 03:33:55;;;;;;;;;;;;;;;-3.25;100.00;102227.56;10500313;28;19923;-76
2023/01/26 03:38:55;;;;;;;;;;;;;;;-3.26;100.00;102230.84;10495783;28;19920;-76
2023/01/26 03:59:53;;;;;;;;;;;;;;;-3.21;100.00;102206.72;10497985;28;19920;-75
2023/01/26 04:10:12;;;;;;;;;;;;;;;-3.18;100.00;102204.56;10473907;28;19928;-76
2023/01/26 04:25:50;;;;;;;;;;;;;;;-3.12;100.00;102200.19;10522830;28;19978;-76
2023/01/26 04:30:50;;;;;;;;;;;;;;;-3.10;100.00;102193.59;10497859;28;20014;-76
2023/01/26 04:35:51;;;;;;;;;;;;;;;-3.10;100.00;102201.28;10472565;28;19923;-76
2023/01/26 04:40:52;;;;;;;;;;;;;;;-3.09;100.00;102215.00;10488837;28;19924;-76
2023/01/26 04:45:56;;;;;;;;;;;;;;;-3.08;100.00;102206.59;10491959;28;19963;-76
2023/01/26 04:51:05;;;;;;;;;;;;;;;-3.07;100.00;102212.66;10501131;28;19920;-76
2023/01/26 04:56:07;;;;;;;;;;;;;;;-3.08;100.00;102209.16;10489103;28;19969;-76
2023/01/26 05:01:08;;;;;;;;;;;;;;;-2.97;100.00;102205.38;10487652;28;19920;-77
2023/01/26 05:06:08;;;;;;;;;;;;;;;-2.98;100.00;102199.31;10471989;28;19927;-76
2023/01/26 05:11:09;;;;;;;;;;;;;;;-2.97;100.00;102188.34;10515198;28;19920;-76
2023/01/26 05:16:12;;;;;;;;;;;;;;;-2.98;100.00;102196.75;10483515;28;19954;-76
2023/01/26 05:21:13;;;;;;;;;;;;;;;-2.96;100.00;102197.84;10508891;28;19994;-75
2023/01/26 05:26:13;;;;;;;;;;;;;;;-2.96;100.00;102197.84;10509752;28;19920;-76
2023/01/26 05:31:13;;;;;;;;;;;;;;;-2.93;100.00;102201.53;10469710;28;19920;-76
2023/01/26 05:36:14;;;;;;;;;;;;;;;-2.92;100.00;102194.03;10495496;28;19920;-76
2023/01/26 05:41:14;;;;;;;;;;;;;;;-2.89;100.00;102208.84;10479459;28;19983;-76
2023/01/26 05:46:14;;;;;;;;;;;;;;;-2.87;100.00;102203.22;10451932;28;19924;-76
2023/01/26 05:51:15;;;;;;;;;;;;;;;-2.85;100.00;102204.31;10507614;28;19945;-76
2023/01/26 05:56:15;;;;;;;;;;;;;;;-2.81;100.00;102203.97;10483764;28;19928;-76
2023/01/26 06:01:16;;;;;;;;;;;;;;;-2.79;100.00;102208.34;10521855;28;20352;-76
2023/01/26 06:06:16;;;;;;;;;;;;;;;-2.81;100.00;102201.41;10525919;28;19934;-76
2023/01/26 06:11:16;;;;;;;;;;;;;;;-2.75;100.00;102210.56;10484032;28;19920;-77
2023/01/26 06:16:17;;;;;;;;;;;;;;;-2.78;100.00;102207.63;10495586;28;20053;-76
2023/01/26 06:21:17;;;;;;;;;;;;;;;-2.78;100.00;102212.75;10523316;28;19973;-77
2023/01/26 06:26:17;;;;;;;;;;;;;;;-2.79;100.00;102214.38;10456560;28;19921;-76
2023/01/26 06:31:18;;;;;;;;;;;;;;;-2.79;100.00;102213.50;10449606;28;19920;-76
2023/01/26 06:36:18;;;;;;;;;;;;;;;-2.77;100.00;102219.72;10488351;28;19920;-76
2023/01/26 06:41:18;;;;;;;;;;;;;;;-2.68;100.00;102215.72;10453668;28;19920;-76
2023/01/26 06:46:19;;;;;;;;;;;;;;;-2.64;100.00;102219.56;10466500;28;19924;-76
2023/01/26 06:51:19;;;;;;;;;;;;;;;-2.66;100.00;102222.84;10470846;28;19920;-76
2023/01/26 06:56:20;;;;;;;;;;;;;;;-2.64;100.00;102214.44;10485087;28;19929;-77
2023/01/26 07:01:21;;;;;;;;;;;;;;;-2.62;100.00;102213.91;10462122;28;20315;-76
2023/01/26 07:06:21;;;;;;;;;;;;;;;-2.61;100.00;102219.94;10471754;28;19924;-76
2023/01/26 07:11:24;;;;;;;;;;;;;;;-2.62;100.00;102223.22;10465218;28;20315;-75
2023/01/26 07:16:24;;;;;;;;;;;;;;;-2.59;100.00;102223.59;10444908;28;19935;-76
2023/01/26 07:21:25;;;;;;;;;;;;;;;-2.56;100.00;102217.22;10455990;28;20392;-76
2023/01/26 07:26:25;;;;;;;;;;;;;;;-2.54;100.00;102222.50;10461521;28;19920;-77
2023/01/26 07:31:25;;;;;;;;;;;;;;;-2.51;100.00;102225.44;10460370;28;19924;-76
2023/01/26 07:36:25;;;;;;;;;;;;;;;-2.47;100.00;102221.63;10475288;28;19921;-77
2023/01/26 07:41:26;;;;;;;;;;;;;;;-2.46;100.00;102226.94;10467390;28;20254;-76
2023/01/26 07:46:26;;;;;;;;;;;;;;;-2.44;100.00;102235.72;10465409;28;20280;-76
2023/01/26 07:51:27;;;;;;;;;;;;;;;-2.39;100.00;102244.91;10454845;28;20365;-76
2023/01/26 07:56:27;;;;;;;;;;;;;;;-2.31;100.00;102248.41;10435820;28;19925;-76
2023/01/26 08:01:27;;;;;;;;;;;;;;;-2.25;100.00;102245.66;10458169;28;19925;-75
2023/01/26 08:06:28;;;;;;;;;;;;;;;-2.16;100.00;102257.03;10466354;28;20002;-76
2023/01/26 08:11:28;;;;;;;;;;;;;;;-2.09;100.00;102258.69;10480751;28;20420;-76
2023/01/26 08:16:28;;;;;;;;;;;;;;;-2.05;100.00;102254.84;10456837;28;19972;-75
2023/01/26 08:21:29;;;;;;;;;;;;;;;-2.05;100.00;102252.28;10460369;28;19923;-76
2023/01/26 08:26:29;;;;;;;;;;;;;;;-1.97;100.00;102255.03;10501728;28;20378;-76
2023/01/26 08:31:31;;;;;;;;;;;;;;;-1.89;100.00;102262.75;10488499;28;20359;-76
2023/01/26 08:36:31;;;;;;;;;;;;;;;-1.79;100.00;102257.97;10480634;28;20351;-76
2023/01/26 08:41:32;;;;;;;;;;;;;;;-1.72;100.00;102254.47;10477291;28;20035;-77
2023/01/26 08:46:32;;;;;;;;;;;;;;;-1.69;100.00;102260.91;10469037;28;20066;-77
2023/01/26 08:51:33;;;;;;;;;;;;;;;-1.67;100.00;102268.78;10464708;28;19920;-77
2023/01/26 08:56:33;;;;;;;;;;;;;;;-1.57;100.00;102273.38;10449242;28;20017;-79
2023/01/26 09:01:34;;;;;;;;;;;;;;;-1.49;100.00;102270.97;10476778;28;20074;-77
2023/01/26 09:06:34;;;;;;;;;;;;;;;-1.42;100.00;102271.69;10482091;28;19932;-77
2023/01/26 09:11:34;;;;;;;;;;;;;;;-1.43;100.00;102270.78;10467636;28;20469;-77
2023/01/26 09:16:35;;;;;;;;;;;;;;;-1.37;100.00;102270.59;10474237;28;19921;-77
2023/01/26 09:21:35;;;;;;;;;;;;;;;-1.31;100.00;102275.53;10453782;28;19928;-77
2023/01/26 09:26:35;;;;;;;;;;;;;;;-1.23;100.00;102279.94;10453399;28;19929;-77
2023/01/26 09:31:36;;;;;;;;;;;;;;;-1.23;100.00;102288.53;10473093;28;20015;-77
2023/01/26 09:36:36;;;;;;;;;;;;;;;-1.22;100.00;102282.66;10471098;28;19924;-77
2023/01/26 09:41:51;;;;;;;;;;;;;;;-1.19;100.00;102280.47;10471339;28;19920;-77
2023/01/26 09:46:58;;;;;;;;;;;;;;;-1.20;100.00;102278.63;10506139;28;19920;-76
2023/01/26 09:52:24;;;;;;;;;;;;;;;-1.13;100.00;102281.91;10527885;28;19920;-77
2023/01/26 09:57:31;;;;;;;;;;;;;;;-1.02;100.00;102278.94;10504748;28;20015;-77
2023/01/26 10:02:34;;;;;;;;;;;;;;;-0.90;100.00;102284.63;10482348;28;20343;-77
2023/01/26 10:07:35;;;;;;;;;;;;;;;-0.94;100.00;102291.03;10500729;28;19920;-76
2023/01/26 10:12:35;;;;;;;;;;;;;;;-0.89;100.00;102279.63;10498288;28;19920;-76
2023/01/26 10:17:37;;;;;;;;;;;;;;;-0.86;100.00;102273.97;10495851;28;19931;-76
2023/01/26 10:22:44;;;;;;;;;;;;;;;-0.84;100.00;102272.47;10504288;28;19920;-77
2023/01/26 10:27:44;;;;;;;;;;;;;;;-0.89;100.00;102266.78;10492252;28;19920;-77
2023/01/26 10:32:45;;;;;;;;;;;;;;;-0.73;100.00;102278.84;10476496;28;20268;-75
2023/01/26 10:37:46;;;;;;;;;;;;;;;-0.63;100.00;102268.88;10468041;28;19919;-77
2023/01/26 10:42:56;;;;;;;;;;;;;;;-0.58;100.00;102265.94;10462345;28;19927;-76
2023/01/26 10:48:03;;;;;;;;;;;;;;;-0.57;100.00;102273.84;10492137;28;19927;-75
2023/01/26 10:53:03;;;;;;;;;;;;;;;-0.63;100.00;102266.31;10489955;28;19920;-75
2023/01/26 10:58:04;;;;;;;;;;;;;;;-0.66;100.00;102278.81;10469420;28;19927;-75
2023/01/26 11:03:17;;;;;;;;;;;;;;;-0.66;100.00;102276.25;10511123;28;20376;-74
2023/01/26 11:08:33;;;;;;;;;;;;;;;-0.61;100.00;102277.69;10498879;28;20045;-75
2023/01/26 11:13:33;;;;;;;;;;;;;;;-0.64;100.00;102264.47;10489507;28;20019;-75
2023/01/26 11:18:53;;;;;;;;;;;;;;;-0.57;100.00;102266.13;10500790;28;19928;-75
2023/01/26 11:24:01;;;;;;;;;;;;;;;-0.48;100.00;102261.09;10491633;28;19916;-75
2023/01/26 11:29:08;;;;;;;;;;;;;;;-0.41;100.00;102250.75;10484077;28;19916;-75
2023/01/26 11:34:08;;;;;;;;;;;;;;;-0.39;100.00;102258.69;10482247;28;20379;-75
2023/01/26 11:39:15;;;;;;;;;;;;;;;-0.43;100.00;102249.69;10506869;28;19920;-76
2023/01/26 11:44:22;;;;;;;;;;;;;;;-0.46;100.00;102251.91;10507964;28;19946;-75
2023/01/26 11:49:32;;;;;;;;;;;;;;;-0.48;100.00;102244.03;10485658;28;20021;-76
2023/01/26 11:54:41;;;;;;;;;;;;;;;-0.49;100.00;102239.63;10483899;28;20385;-75
2023/01/26 11:59:43;;;;;;;;;;;;;;;-0.23;100.00;102235.59;10504816;28;19928;-75
2023/01/26 12:04:44;;;;;;;;;;;;;;;-0.01;100.00;102233.78;10487144;28;19920;-75
2023/01/26 12:09:47;;;;;;;;;;;;;;;-0.02;100.00;102222.56;10479633;28;19924;-75
2023/01/26 12:14:48;;;;;;;;;;;;;;;0.05;100.00;102221.59;10481329;28;19928;-75
2023/01/26 12:19:51;;;;;;;;;;;;;;;0.12;100.00;102221.53;10497555;28;19931;-76
2023/01/26 12:24:56;;;;;;;;;;;;;;;0.10;100.00;102215.31;10469052;28;19933;-76
2023/01/26 12:30:05;;;;;;;;;;;;;;;0.13;100.00;102205.34;10460455;28;19991;-75
2023/01/26 12:35:09;;;;;;;;;;;;;;;0.19;100.00;102202.53;10491820;28;20323;-75
2023/01/26 12:40:15;;;;;;;;;;;;;;;0.24;100.00;102203.03;10473137;28;20346;-74
2023/01/26 12:45:26;;;;;;;;;;;;;;;0.30;100.00;102190.84;10487646;28;20359;-76
2023/01/26 12:50:46;;;;;;;;;;;;;;;0.51;100.00;102188.78;10487214;28;19916;-75
2023/01/26 12:56:04;;;;;;;;;;;;;;;0.73;100.00;102194.59;10485957;28;19928;-74
2023/01/26 13:01:14;;;;;;;;;;;;;;;0.92;100.00;102184.63;10485219;28;19927;-74
2023/01/26 13:06:15;;;;;;;;;;;;;;;1.17;100.00;102185.59;10505543;28;19923;-75
2023/01/26 13:11:35;;;;;;;;;;;;;;;1.44;100.00;102176.38;10499937;28;19931;-74
2023/01/26 13:16:36;;;;;;;;;;;;;;;1.61;100.00;102175.56;10511603;28;19920;-75
2023/01/26 13:21:36;;;;;;;;;;;;;;;1.70;100.00;102162.69;10471567;28;20291;-76
2023/01/26 13:26:40;;;;;;;;;;;;;;;1.79;100.00;102170.50;10491698;28;19925;-76
2023/01/26 13:31:40;;;;;;;;;;;;;;;1.96;100.00;102161.91;10514544;28;19920;-75
2023/01/26 13:36:40;;;;;;;;;;;;;;;2.16;100.00;102161.38;10511644;28;19981;-76
2023/01/26 13:41:45;;;;;;;;;;;;;;;2.31;100.00;102158.53;10488892;28;19916;-76
2023/01/26 13:46:53;;;;;;;;;;;;;;;2.43;100.00;102164.03;10490625;28;19927;-76
2023/01/26 13:51:54;;;;;;;;;;;;;;;2.40;100.00;102172.41;10514133;28;19922;-76
2023/01/26 13:57:02;;;;;;;;;;;;;;;2.41;100.00;102178.47;10501221;28;20272;-76
2023/01/26 14:02:09;;;;;;;;;;;;;;;2.52;100.00;102164.06;10502408;28;20359;-75
2023/01/26 14:07:14;;;;;;;;;;;;;;;2.65;100.00;102172.28;10487749;28;20363;-75
2023/01/26 14:12:20;;;;;;;;;;;;;;;2.72;100.00;102176.38;10495108;28;20053;-76
2023/01/26 14:17:24;;;;;;;;;;;;;;;2.78;100.00;102177.00;10488710;28;20372;-76
2023/01/26 14:22:27;;;;;;;;;;;;;;;2.82;100.00;102178.25;10503967;28;19950;-76
2023/01/26 14:27:28;;;;;;;;;;;;;;;2.89;100.00;102181.56;10493838;28;19923;-75
2023/01/26 14:32:28;;;;;;;;;;;;;;;2.97;100.00;102178.84;10507869;28;19923;-75
2023/01/26 14:37:29;;;;;;;;;;;;;;;3.00;100.00;102169.72;10470256;28;19916;-76
2023/01/26 14:42:29;;;;;;;;;;;;;;;3.03;100.00;102163.91;10500409;28;19920;-75
2023/01/26 14:47:30;;;;;;;;;;;;;;;3.11;100.00;102169.88;10528603;28;20061;-76
2023/01/26 14:52:34;;;;;;;;;;;;;;;3.12;100.00;102176.88;10494603;28;20420;-75
2023/01/26 14:57:34;;;;;;;;;;;;;;;3.13;100.00;102165.75;10510109;28;20297;-76
2023/01/26 15:02:38;;;;;;;;;;;;;;;3.15;100.00;102185.84;10528594;28;19920;-76
2023/01/26 15:07:41;;;;;;;;;;;;;;;3.20;100.00;102183.72;10528747;28;19962;-76
2023/01/26 15:12:42;;;;;;;;;;;;;;;3.24;100.00;102193.59;10509683;28;20379;-75
2023/01/26 15:17:42;;;;;;;;;;;;;;;3.22;100.00;102190.84;10528337;28;19920;-75
2023/01/26 15:22:47;;;;;;;;;;;;;;;3.21;100.00;102189.03;10509255;28;19920;-75
2023/01/26 15:27:48;;;;;;;;;;;;;;;3.15;100.00;102191.00;10509773;28;19968;-75
2023/01/26 15:32:48;;;;;;;;;;;;;;;3.04;100.00;102194.19;10509586;28;19969;-76
2023/01/26 15:37:49;;;;;;;;;;;;;;;2.85;100.00;102192.38;10507259;28;20269;-75
2023/01/26 15:42:49;;;;;;;;;;;;;;;2.72;100.00;102181.56;10510818;28;19923;-75
2023/01/26 15:47:49;;;;;;;;;;;;;;;2.54;100.00;102180.63;10526342;28;19920;-76
2023/01/26 15:52:50;;;;;;;;;;;;;;;2.38;100.00;102170.41;10508389;28;19926;-76
2023/01/26 15:57:50;;;;;;;;;;;;;;;2.24;100.00;102169.91;10490950;28;19920;-76
2023/01/26 16:02:50;;;;;;;;;;;;;;;2.15;100.00;102171.53;10526909;28;19927;-75
2023/01/26 16:07:51;;;;;;;;;;;;;;;2.00;100.00;102174.38;10526311;28;19923;-76
2023/01/26 16:12:51;;;;;;;;;;;;;;;1.91;100.00;102178.59;10506988;28;19920;-76
2023/01/26 16:17:52;;;;;;;;;;;;;;;1.84;100.00;102187.38;10508862;28;20026;-76
2023/01/26 16:22:52;;;;;;;;;;;;;;;1.74;100.00;102195.81;10477348;28;19924;-76
2023/01/26 16:27:53;;;;;;;;;;;;;;;1.69;100.00;102196.13;10469035;28;20003;-76
2023/01/26 16:32:53;;;;;;;;;;;;;;;1.45;100.00;102188.50;10464273;28;19916;-75
2023/01/26 16:37:54;;;;;;;;;;;;;;;1.37;100.00;102188.47;10489930;28;19924;-75
2023/01/26 16:42:54;;;;;;;;;;;;;;;1.37;100.00;102189.38;10505378;28;20027;-75
2023/01/26 16:47:55;;;;;;;;;;;;;;;1.28;100.00;102190.97;10461955;28;19955;-75
2023/01/26 16:52:55;;;;;;;;;;;;;;;1.22;100.00;102198.06;10482277;28;20368;-74
2023/01/26 16:57:56;;;;;;;;;;;;;;;1.20;100.00;102196.97;10483148;28;19920;-75
2023/01/26 17:02:56;;;;;;;;;;;;;;;1.15;100.00;102191.34;10489204;28;19919;-75
2023/01/26 17:07:57;;;;;;;;;;;;;;;1.13;100.00;102192.84;10479217;28;20043;-75
2023/01/26 17:12:57;;;;;;;;;;;;;;;1.16;100.00;102196.66;10470563;28;19920;-75
2023/01/26 17:17:58;;;;;;;;;;;;;;;1.17;100.00;102188.16;10486112;28;19924;-75
2023/01/26 17:22:58;;;;;;;;;;;;;;;1.22;100.00;102195.47;10480015;28;19927;-74
2023/01/26 17:27:59;;;;;;;;;;;;;;;1.27;100.00;102196.88;10467984;28;19924;-75
2023/01/26 17:33:00;;;;;;;;;;;;;;;1.30;100.00;102186.88;10481026;28;20425;-75
2023/01/26 17:38:01;;;;;;;;;;;;;;;1.36;100.00;102200.44;10482051;28;19927;-75
2023/01/26 17:43:01;;;;;;;;;;;;;;;1.46;100.00;102192.91;10501937;28;19927;-75
2023/01/26 17:48:02;;;;;;;;;;;;;;;1.54;100.00;102187.66;10490055;28;19921;-76
2023/01/26 17:53:02;;;;;;;;;;;;;;;1.54;100.00;102186.00;10506640;28;19936;-76
2023/01/26 17:58:04;;;;;;;;;;;;;;;1.50;100.00;102182.94;10462113;28;20011;-75
2023/01/26 18:03:04;;;;;;;;;;;;;;;1.53;100.00;102199.66;10489276;28;19956;-75
2023/01/26 18:08:04;;;;;;;;;;;;;;;1.55;100.00;102190.41;10469404;28;20007;-76
2023/01/26 18:13:05;;;;;;;;;;;;;;;1.58;100.00;102192.38;10508166;28;19924;-75
2023/01/26 18:18:05;;;;;;;;;;;;;;;1.71;100.00;102195.50;10509947;28;19931;-74
2023/01/26 18:23:06;;;;;;;;;;;;;;;1.91;100.00;102204.41;10511334;28;19930;-77
2023/01/26 18:28:06;;;;;;;;;;;;;;;2.05;100.00;102201.59;10453996;28;20330;-77
2023/01/26 18:33:07;;;;;;;;;;;;;;;2.23;100.00;102193.91;10506848;28;20006;-75
2023/01/26 18:38:07;;;;;;;;;;;;;;;2.48;100.00;102193.81;10502752;28;19928;-76
2023/01/26 18:43:08;;;;;;;;;;;;;;;2.64;100.00;102186.88;10466632;28;19920;-75
2023/01/26 18:48:08;;;;;;;;;;;;;;;2.77;100.00;102194.19;10492637;28;19921;-75
2023/01/26 18:53:09;;;;;;;;;;;;;;;2.75;100.00;102187.97;10489187;28;19927;-75
2023/01/26 18:58:10;;;;;;;;;;;;;;;2.76;100.00;102189.78;10473250;28;19924;-75
2023/01/26 19:03:10;;;;;;;;;;;;;;;2.80;100.00;102172.91;10462638;28;19923;-75
2023/01/26 19:08:10;;;;;;;;;;;;;;;2.93;100.00;102185.41;10517191;28;19924;-75
2023/01/26 19:13:11;;;;;;;;;;;;;;;3.01;100.00;102180.97;10471145;28;19927;-75
2023/01/26 19:18:12;;;;;;;;;;;;;;;3.03;100.00;102184.63;10524479;28;19927;-75
2023/01/26 19:23:14;;;;;;;;;;;;;;;3.08;100.00;102180.81;10508427;28;19923;-75
2023/01/26 19:28:14;;;;;;;;;;;;;;;3.04;100.00;102194.19;10488683;28;20011;-75
2023/01/26 19:33:24;;;;;;;;;;;;;;;3.07;100.00;102182.50;10505985;28;19924;-75
2023/01/26 19:38:24;;;;;;;;;;;;;;;3.06;100.00;102175.50;10524965;28;19920;-75
2023/01/26 19:43:24;;;;;;;;;;;;;;;2.98;100.00;102183.25;10526111;28;20314;-75
2023/01/26 19:48:25;;;;;;;;;;;;;;;2.86;100.00;102188.13;10488868;28;20315;-74
2023/01/26 19:53:26;;;;;;;;;;;;;;;2.77;100.00;102182.94;10508489;28;20355;-75
2023/01/26 19:58:26;;;;;;;;;;;;;;;2.79;100.00;102187.50;10523598;28;20261;-76
2023/01/26 20:03:27;;;;;;;;;;;;;;;2.83;100.00;102185.22;10490943;28;19927;-75
2023/01/26 20:08:27;;;;;;;;;;;;;;;2.71;100.00;102187.47;10525147;28;19927;-76
2023/01/26 20:13:27;;;;;;;;;;;;;;;2.67;100.00;102188.88;10482196;28;19924;-76
2023/01/26 20:18:28;;;;;;;;;;;;;;;2.75;100.00;102189.63;10487551;28;19920;-75
2023/01/26 20:23:28;;;;;;;;;;;;;;;2.68;100.00;102195.88;10493887;28;19924;-76
2023/01/26 20:28:29;;;;;;;;;;;;;;;2.71;100.00;102183.25;10496233;28;20003;-76
2023/01/26 20:33:29;;;;;;;;;;;;;;;2.71;100.00;102182.31;10505850;28;19929;-75
2023/01/26 20:38:30;;;;;;;;;;;;;;;2.73;100.00;102181.72;10506717;28;20379;-76
2023/01/26 20:43:31;;;;;;;;;;;;;;;2.81;100.00;102184.16;10496698;28;19928;-75
2023/01/26 20:48:31;;;;;;;;;;;;;;;2.76;100.00;102179.44;10508491;28;19943;-74
2023/01/26 20:53:32;;;;;;;;;;;;;;;2.76;100.00;102178.53;10523790;28;20661;-74
2023/01/26 20:58:33;;;;;;;;;;;;;;;2.82;100.00;102173.97;10523468;28;19920;-74
2023/01/26 21:03:33;;;;;;;;;;;;;;;2.91;100.00;102184.31;10467824;28;19921;-74
2023/01/26 21:08:35;;;;;;;;;;;;;;;2.95;100.00;102176.13;10498040;28;19928;-74
2023/01/26 21:13:36;;;;;;;;;;;;;;;3.00;100.00;102179.13;10507754;28;19921;-74
2023/01/26 21:18:36;;;;;;;;;;;;;;;2.96;100.00;102177.94;10478408;28;20287;-74
2023/01/26 21:23:37;;;;;;;;;;;;;;;3.01;100.00;102168.97;10505433;28;20291;-74
2023/01/26 21:28:37;;;;;;;;;;;;;;;3.06;100.00;102170.31;10512070;28;19924;-75
2023/01/26 21:33:40;;;;;;;;;;;;;;;3.12;100.00;102159.66;10471178;28;19981;-75
2023/01/26 21:38:42;;;;;;;;;;;;;;;3.14;100.00;102157.25;10518442;28;19920;-75
2023/01/26 21:43:42;;;;;;;;;;;;;;;3.13;100.00;102156.31;10507656;28;19931;-75
2023/01/26 21:48:42;;;;;;;;;;;;;;;3.12;100.00;102154.47;10531048;28;20394;-75
2023/01/26 21:53:43;;;;;;;;;;;;;;;3.09;100.00;102161.94;10530206;28;19937;-75
2023/01/26 21:58:52;;;;;;;;;;;;;;;3.15;100.00;102157.38;10505864;28;19924;-75
2023/01/26 22:03:53;;;;;;;;;;;;;;;3.18;100.00;102157.66;10490107;28;19916;-74
2023/01/26 22:08:54;;;;;;;;;;;;;;;3.05;100.00;102149.47;10503361;28;20030;-75
2023/01/26 22:13:54;;;;;;;;;;;;;;;2.92;100.00;102147.34;10469788;28;19928;-75
2023/01/26 22:18:54;;;;;;;;;;;;;;;2.89;100.00;102147.94;10514165;28;19920;-75
2023/01/26 22:23:55;;;;;;;;;;;;;;;2.84;100.00;102159.50;10512225;28;19924;-75
2023/01/26 22:28:55;;;;;;;;;;;;;;;2.84;100.00;102151.75;10523642;28;20364;-75
2023/01/26 22:33:56;;;;;;;;;;;;;;;2.87;100.00;102162.41;10497791;28;20275;-75
2023/01/26 22:38:57;;;;;;;;;;;;;;;2.84;100.00;102161.19;10506888;28;19920;-75
2023/01/26 22:43:58;;;;;;;;;;;;;;;2.74;100.00;102162.88;10486768;28;20059;-75
2023/01/26 22:48:59;;;;;;;;;;;;;;;2.66;100.00;102150.84;10490494;28;19976;-75
2023/01/26 22:53:59;;;;;;;;;;;;;;;2.41;100.00;102155.19;10493358;28;20379;-75
2023/01/26 22:58:59;;;;;;;;;;;;;;;2.29;100.00;102153.19;10473100;28;20363;-76
2023/01/26 23:04:00;;;;;;;;;;;;;;;2.34;100.00;102162.31;10528042;28;19920;-76
2023/01/26 23:09:03;;;;;;;;;;;;;;;2.45;100.00;102165.09;10479320;28;20284;-75
2023/01/26 23:14:03;;;;;;;;;;;;;;;2.68;100.00;102166.50;10527788;28;20017;-75
2023/01/26 23:19:04;;;;;;;;;;;;;;;2.76;100.00;102160.41;10524499;28;20043;-75
2023/01/26 23:24:04;;;;;;;;;;;;;;;2.73;100.00;102153.28;10470251;28;20352;-75
2023/01/26 23:29:04;;;;;;;;;;;;;;;2.70;100.00;102149.47;10501873;28;19928;-75
2023/01/26 23:34:05;;;;;;;;;;;;;;;2.70;100.00;102158.16;10484951;28;19924;-75
2023/01/26 23:39:05;;;;;;;;;;;;;;;2.59;100.00;102157.06;10487767;28;20010;-75
2023/01/26 23:44:05;;;;;;;;;;;;;;;2.53;100.00;102148.69;10498638;28;20019;-75
2023/01/26 23:49:06;;;;;;;;;;;;;;;2.52;100.00;102153.72;10484729;28;19927;-75
2023/01/26 23:54:06;;;;;;;;;;;;;;;2.52;100.00;102154.63;10467010;28;19916;-76
2023/01/26 23:59:06;;;;;;;;;;;;;;;2.44;100.00;102150.34;10493733;28;20284;-75
